Flight Track Log - Related Links

Times and Time Zones

All times are in EDT time to prevent confusion due to time zone crossing. See the SWA204 flight status page for this flight to view local times or setup timezone preferences in your user account.

Time Position Orientation Groundspeed Altitude Reporting Facility
EDT Latitude Longitude Course Direction KTS MPH feet Rate Location/Type
Thu 12:47:34 PM 37.4433 -121.9528 141° Southeast 229 264 4,600  Level Oakland Center
Thu 12:48:36 PM 37.4033 -121.8856 127° Southeast 265 305 5,300 2,146 Climbing Oakland Center
Thu 12:49:37 PM 37.3428 -121.8247 141° Southeast 276 318 9,000 3,268 Climbing Oakland Center
Thu 12:50:39 PM 37.2733 -121.7453 138° Southeast 325 374 12,000 3,220 Climbing Oakland Center
Thu 12:51:40 PM 37.1997 -121.6644 139° Southeast 347 399 15,600 2,837 Climbing Oakland Center
Thu 12:53:43 PM 37.0458 -121.4972 130° Southeast 385 443 20,700 2,400 Climbing Oakland Center
Thu 12:54:45 PM 36.9617 -121.3981 137° Southeast 410 472 23,000 2,634 Climbing Oakland Center
Thu 12:55:46 PM 36.8503 -121.2756 139° Southeast 442 509 26,100 2,927 Climbing Oakland Center
Thu 12:56:48 PM 36.7564 -121.1767 140° Southeast 429 494 29,000 1,403 Climbing Oakland Center
Thu 12:57:50 PM 36.6689 -121.0800 138° Southeast 421 484 29,000 634 Level Oakland Center
Thu 12:58:51 PM 36.5797 -120.9850 139° Southeast 421 484 30,300 1,272 Climbing Oakland Center
Thu 01:00:54 PM 36.3967 -120.7825 134° Southeast 445 512 32,900 659 Climbing Oakland Center
Thu 01:02:00 PM 36.3185 -120.6852 141° Southeast  Level FlightAware Approximate
Thu 01:02:57 PM 36.2100 -120.5811 141° Southeast 445 512 33,000  Level Oakland Center
Thu 01:03:59 PM 36.1172 -120.4792 138° Southeast 443 510 33,000  Level Oakland Center
Thu 01:06:02 PM 35.9108 -120.2586 139° Southeast 444 511 33,000  Level Oakland Center
Thu 01:07:03 PM 35.8147 -120.1561 139° Southeast 449 517 33,000  Level Oakland Center
Thu 01:08:05 PM 35.7194 -120.0533 139° Southeast 451 519 33,000  Level Oakland Center
Thu 01:09:07 PM 35.6211 -119.9550 141° Southeast 451 519 33,000  Level Oakland Center
Thu 01:10:08 PM 35.5147 -119.8631 145° Southeast 458 527 33,000 -244 Level Oakland Center
Thu 01:11:10 PM 35.3994 -119.7644 145° Southeast 497 572 32,500 -680 Descending Oakland Center
Thu 01:11:45 PM 35.3319 -119.7067 145° Southeast 496 571 31,900 -990 Descending Los Angeles Center
Thu 01:12:47 PM 35.2233 -119.6128 145° Southeast 483 556 30,900 -968 Descending Los Angeles Center
Thu 01:13:49 PM 35.1161 -119.5208 145° Southeast 470 541 29,900 -1,059 Descending Los Angeles Center
Thu 01:15:54 PM 34.8783 -119.3189 145° Southeast 465 535 27,600 -1,412 Descending Los Angeles Center
Thu 01:16:56 PM 34.7778 -119.2344 145° Southeast 444 511 25,500 -2,032 Descending Los Angeles Center
Thu 01:17:58 PM 34.6817 -119.1519 145° Southeast 427 491 23,400 -2,097 Descending Los Angeles Center
Thu 01:20:02 PM 34.4853 -118.9889 146° Southeast 392 451 19,000 -2,021 Descending Los Angeles Center
Thu 01:21:05 PM 34.3981 -118.9161 145° Southeast 378 435 17,100 -1,920 Descending Los Angeles Center
Thu 01:22:07 PM 34.3078 -118.8625 154° Southeast 363 418 15,000 -1,790 Descending Los Angeles Center
Thu 01:23:09 PM 34.2128 -118.8292 164° South 357 411 13,400 -1,355 Descending Los Angeles Center
Thu 01:24:11 PM 34.1292 -118.7972 162° South 319 367 12,200 -1,206 Descending Los Angeles Center
Thu 01:26:23 PM 34.0333 -118.6167 123° Southeast 302 348 9,500 -1,406 Descending Southern California TRACON
Thu 01:27:23 PM 34.0167 -118.5167 101° East 299 344 7,700 -1,282 Descending Southern California TRACON
Thu 01:28:20 PM 34.0108 -118.4456 96° East 292 336 7,000 -958 Descending Los Angeles Center
Thu 01:29:22 PM 34.0247 -118.3522 80° East 287 330 5,800 -1,016 Descending Los Angeles Center
Thu 01:30:24 PM 34.0364 -118.2606 81° East 284 327 4,900 -823 Descending Los Angeles Center
Thu 01:31:26 PM 34.0222 -118.1833 102° East 224 258 4,100 -900 Descending Los Angeles Center
Thu 01:33:24 PM 33.9667 -118.2667 231° Southwest 191 220 2,200 -949 Descending Southern California TRACON
Thu 01:34:23 PM 33.9667 -118.3333 270° West 168 193 1,300 -850 Descending Southern California TRACON
Thu 01:35:24 PM 33.9500 -118.3833 248° West 136 157 500 -787 Descending Southern California TRACON
Thu 01:37:00 PM 33.9333 -118.4000 228° Southwest  Level FlightAware Approximate
Thu 01:44:00 PM 33.9425 -118.4081 228° Southwest  Level Estimated

Login

Don't have an account? Register now (free) for customized features, flight alerts, and more!